Time;durP1;ratioP1;P1;durP2;ratioP2;P2;SDS_P1;SDS_P2;PMS_P1;PMS_P2;Temp;Humidity;BMP_temperature;BMP_pressure;BME280_temperature;BME280_humidity;BME280_pressure;Samples;Min_cycle;Max_cycle;Signal;HPM_P1;HPM_P2
2023/04/30 00:00:28;;;;;;;5.10;2.23;;;6.90;63.70;;;;;;5051334;28;20461;-53
2023/04/30 00:02:55;;;;;;;3.80;2.37;;;6.80;61.80;;;;;;5053591;28;20480;-53
2023/04/30 00:05:21;;;;;;;4.47;2.03;;;6.80;58.40;;;;;;5046513;28;20843;-53
2023/04/30 00:07:48;;;;;;;6.57;2.30;;;6.80;53.10;;;;;;5035899;28;20486;-53
2023/04/30 00:10:16;;;;;;;9.17;2.40;;;6.70;50.70;;;;;;5054535;28;20540;-53
2023/04/30 00:12:42;;;;;;;4.27;1.90;;;6.60;48.30;;;;;;5051685;28;20497;-52
2023/04/30 00:15:10;;;;;;;11.77;2.67;;;6.50;36.10;;;;;;5052915;28;20522;-52
2023/04/30 00:17:36;;;;;;;2.90;1.90;;;6.50;35.70;;;;;;5052275;28;20550;-52
2023/04/30 00:20:04;;;;;;;6.80;2.77;;;6.40;31.70;;;;;;5041805;28;20887;-52
2023/04/30 00:22:32;;;;;;;9.57;2.93;;;6.30;32.40;;;;;;5045398;28;21308;-52
2023/04/30 00:24:58;;;;;;;6.90;2.23;;;6.20;28.50;;;;;;5058203;28;20874;-53
2023/04/30 00:27:26;;;;;;;10.97;2.40;;;6.20;84.60;;;;;;5056469;28;20484;-52
2023/04/30 00:29:53;;;;;;;9.93;2.67;;;6.10;99.90;;;;;;5044177;28;20566;-52
2023/04/30 00:32:20;;;;;;;5.03;2.33;;;6.10;99.90;;;;;;5042719;28;20461;-53
2023/04/30 00:34:47;;;;;;;4.10;2.20;;;6.00;99.90;;;;;;5046525;28;20531;-52
2023/04/30 00:37:13;;;;;;;7.70;1.87;;;6.00;99.90;;;;;;5051416;28;20515;-52
2023/04/30 00:39:40;;;;;;;3.70;1.90;;;5.90;99.90;;;;;;5036807;28;20457;-53
2023/04/30 00:42:07;;;;;;;3.87;2.17;;;5.80;99.90;;;;;;5058244;28;20491;-53
2023/04/30 00:44:34;;;;;;;3.87;2.63;;;5.80;99.90;;;;;;5067331;28;20474;-52
2023/04/30 00:47:01;;;;;;;8.80;2.10;;;5.70;99.90;;;;;;5049242;28;20480;-52
2023/04/30 00:49:28;;;;;;;8.60;2.43;;;5.70;99.90;;;;;;5048950;28;20516;-53
2023/04/30 00:51:54;;;;;;;4.50;2.60;;;5.60;99.90;;;;;;5035408;28;20460;-52
2023/04/30 00:54:21;;;;;;;6.67;1.87;;;5.60;99.90;;;;;;5043296;28;20470;-52
2023/04/30 00:56:48;;;;;;;4.40;2.00;;;5.50;99.90;;;;;;5049573;28;20497;-52
2023/04/30 00:59:15;;;;;;;4.70;2.37;;;5.50;99.90;;;;;;5039977;28;20833;-53
2023/04/30 01:01:43;;;;;;;4.47;2.40;;;5.40;99.90;;;;;;5041351;28;20468;-53
2023/04/30 01:04:10;;;;;;;8.00;2.50;;;5.40;99.90;;;;;;5052194;28;20556;-53
2023/04/30 01:06:37;;;;;;;2.47;1.90;;;5.40;99.90;;;;;;5041876;28;20977;-52
2023/04/30 01:09:04;;;;;;;5.70;2.53;;;5.40;99.90;;;;;;5042832;28;20512;-52
2023/04/30 01:11:39;;;;;;;5.40;2.43;;;5.30;99.90;;;;;;5050597;28;20462;-53
2023/04/30 01:14:10;;;;;;;7.77;2.43;;;5.20;99.90;;;;;;5047591;28;20461;-53
2023/04/30 01:16:46;;;;;;;11.97;3.30;;;5.20;99.90;;;;;;5046545;28;20483;-53
2023/04/30 01:19:31;;;;;;;7.33;3.00;;;5.10;99.90;;;;;;5045054;28;20484;-52
2023/04/30 01:22:00;;;;;;;8.27;2.43;;;5.10;99.90;;;;;;5043613;28;20483;-52
2023/04/30 01:24:43;;;;;;;8.53;2.60;;;5.00;99.90;;;;;;5045935;28;20460;-52
2023/04/30 01:27:23;;;;;;;8.20;2.77;;;5.10;99.90;;;;;;5044929;28;21067;-53
2023/04/30 01:29:54;;;;;;;4.90;2.57;;;5.00;99.90;;;;;;5043490;28;20487;-52
2023/04/30 01:32:21;;;;;;;8.10;2.67;;;4.90;99.90;;;;;;5041542;28;20477;-52
2023/04/30 01:34:47;;;;;;;7.50;2.50;;;4.90;99.90;;;;;;5054558;28;20920;-54
2023/04/30 01:37:22;;;;;;;4.83;2.87;;;4.90;99.90;;;;;;5040468;28;20536;-52
2023/04/30 01:40:12;;;;;;;5.03;2.60;;;4.80;99.90;;;;;;5047824;28;20462;-52
2023/04/30 01:42:46;;;;;;;6.20;2.27;;;4.70;99.90;;;;;;5044823;28;20495;-52
2023/04/30 01:45:26;;;;;;;7.57;2.67;;;4.60;99.90;;;;;;5046870;28;20498;-52
2023/04/30 01:48:00;;;;;;;6.70;2.60;;;4.50;99.90;;;;;;5046690;28;21003;-53
2023/04/30 01:50:37;;;;;;;4.80;2.63;;;4.50;99.90;;;;;;5050732;28;20994;-53
2023/04/30 01:53:06;;;;;;;4.87;1.97;;;4.50;99.90;;;;;;5035073;28;20493;-52
2023/04/30 01:55:37;;;;;;;4.30;2.30;;;4.40;99.90;;;;;;5042661;28;20489;-53
2023/04/30 01:58:07;;;;;;;10.43;3.17;;;4.30;99.90;;;;;;5048962;28;20498;-53
2023/04/30 02:00:35;;;;;;;3.50;2.83;;;4.20;99.90;;;;;;5042581;28;20498;-53
2023/04/30 02:03:01;;;;;;;4.97;3.10;;;4.20;99.90;;;;;;5039247;28;20460;-53
2023/04/30 02:05:28;;;;;;;8.17;3.20;;;4.10;99.90;;;;;;5044197;28;20452;-53
2023/04/30 02:07:55;;;;;;;6.10;2.60;;;4.10;99.90;;;;;;5048396;28;20464;-53
2023/04/30 02:10:22;;;;;;;4.80;2.87;;;4.10;99.90;;;;;;5056315;28;20572;-53
2023/04/30 02:12:49;;;;;;;5.43;2.70;;;4.10;99.90;;;;;;5051614;28;20494;-52
2023/04/30 02:15:16;;;;;;;14.50;2.90;;;4.00;98.80;;;;;;5046639;28;20469;-53
2023/04/30 02:17:44;;;;;;;9.20;2.53;;;4.00;95.90;;;;;;5035229;28;20510;-53
2023/04/30 02:20:11;;;;;;;9.37;3.07;;;4.00;92.70;;;;;;5043275;28;20489;-53
2023/04/30 02:22:38;;;;;;;9.93;3.17;;;4.00;92.80;;;;;;5042449;28;20472;-54
2023/04/30 02:25:05;;;;;;;6.63;3.30;;;4.00;89.80;;;;;;5042225;28;20469;-53
2023/04/30 02:27:33;;;;;;;7.70;2.90;;;4.00;86.60;;;;;;5040765;28;20508;-54
2023/04/30 02:30:01;;;;;;;4.47;2.40;;;4.00;86.60;;;;;;5043131;28;21048;-52
2023/04/30 02:32:28;;;;;;;4.90;2.50;;;4.00;91.20;;;;;;5043135;28;20469;-53
2023/04/30 02:34:56;;;;;;;8.20;3.07;;;3.90;95.20;;;;;;5039697;28;21022;-53
2023/04/30 02:37:23;;;;;;;9.27;3.10;;;3.90;93.90;;;;;;5042571;28;20524;-53
2023/04/30 02:39:49;;;;;;;5.80;2.37;;;3.90;89.80;;;;;;5044384;28;20496;-53
2023/04/30 02:42:16;;;;;;;9.20;2.77;;;3.80;88.00;;;;;;5059668;28;20449;-53
2023/04/30 02:44:43;;;;;;;6.07;3.33;;;3.80;83.20;;;;;;5040518;28;20492;-53
2023/04/30 02:47:09;;;;;;;5.37;2.60;;;3.80;80.60;;;;;;5044534;28;20839;-52
2023/04/30 02:49:36;;;;;;;9.70;2.60;;;3.70;79.20;;;;;;5041454;28;20542;-53
2023/04/30 02:52:04;;;;;;;6.23;2.60;;;3.70;76.10;;;;;;5065387;28;20461;-53
2023/04/30 02:54:31;;;;;;;4.50;2.33;;;3.70;74.90;;;;;;5045802;28;20461;-53
2023/04/30 02:56:57;;;;;;;9.30;3.63;;;3.60;75.90;;;;;;5045576;28;20524;-56
2023/04/30 02:59:24;;;;;;;5.47;2.73;;;3.60;74.90;;;;;;5042153;28;20486;-57
2023/04/30 03:01:51;;;;;;;6.63;2.70;;;3.50;72.00;;;;;;5045766;28;20496;-60
2023/04/30 03:04:17;;;;;;;6.40;2.87;;;3.50;69.80;;;;;;5043064;28;21012;-56
2023/04/30 03:06:44;;;;;;;5.57;2.63;;;3.50;70.40;;;;;;5048569;28;20512;-57
2023/04/30 03:09:12;;;;;;;4.90;2.60;;;3.50;68.60;;;;;;5049329;28;20489;-57
2023/04/30 03:11:39;;;;;;;8.53;3.03;;;3.50;66.20;;;;;;5052974;28;20931;-57
2023/04/30 03:14:05;;;;;;;5.20;2.60;;;3.50;64.10;;;;;;5048257;28;20501;-57
2023/04/30 03:16:32;;;;;;;6.83;2.47;;;3.40;62.60;;;;;;5042371;28;21195;-58
2023/04/30 03:18:58;;;;;;;6.20;2.50;;;3.40;61.30;;;;;;5051078;28;20493;-57
2023/04/30 03:21:25;;;;;;;7.73;2.60;;;3.40;61.50;;;;;;5054138;28;20469;-57
2023/04/30 03:23:51;;;;;;;13.63;3.27;;;3.30;60.50;;;;;;5040663;28;20983;-57
2023/04/30 03:26:20;;;;;;;3.60;2.30;;;3.30;58.60;;;;;;5047387;28;20499;-57
2023/04/30 03:28:48;;;;;;;5.23;2.60;;;3.30;57.30;;;;;;5045167;28;20464;-57
2023/04/30 03:31:14;;;;;;;7.43;2.90;;;3.30;57.00;;;;;;5047988;28;20468;-57
2023/04/30 03:33:41;;;;;;;7.07;2.67;;;3.20;56.60;;;;;;5047133;28;20456;-57
2023/04/30 03:36:07;;;;;;;6.20;2.77;;;3.20;57.30;;;;;;5054064;28;20504;-57
2023/04/30 03:38:34;;;;;;;9.13;2.73;;;3.20;55.70;;;;;;5043480;28;20547;-58
2023/04/30 03:41:01;;;;;;;14.10;2.80;;;3.10;55.00;;;;;;5045303;28;20488;-57
2023/04/30 03:43:28;;;;;;;5.53;2.97;;;3.10;55.40;;;;;;5042222;28;20494;-57
2023/04/30 03:45:55;;;;;;;7.53;3.53;;;3.00;55.50;;;;;;5045158;28;20651;-56
2023/04/30 03:48:22;;;;;;;4.80;2.53;;;3.00;54.00;;;;;;5040049;28;20489;-58
2023/04/30 03:50:48;;;;;;;6.03;2.90;;;3.00;52.20;;;;;;5044963;28;20573;-58
2023/04/30 03:53:15;;;;;;;6.60;2.70;;;3.00;50.90;;;;;;5044328;28;20460;-57
2023/04/30 03:55:42;;;;;;;12.43;3.17;;;3.00;47.80;;;;;;5052219;28;20545;-57
2023/04/30 03:58:08;;;;;;;6.70;2.70;;;3.00;54.20;;;;;;5048444;28;20497;-58
2023/04/30 04:00:37;;;;;;;7.43;2.70;;;2.90;56.00;;;;;;5050706;28;20489;-58
2023/04/30 04:03:04;;;;;;;3.70;2.83;;;2.90;57.20;;;;;;5046783;28;20556;-57
2023/04/30 04:05:30;;;;;;;3.80;2.33;;;3.00;52.70;;;;;;5045627;28;20471;-57
2023/04/30 04:07:57;;;;;;;8.27;2.60;;;2.90;56.50;;;;;;5052179;28;20489;-57
2023/04/30 04:10:23;;;;;;;7.00;2.43;;;2.90;57.80;;;;;;5050209;28;20571;-57
2023/04/30 04:12:50;;;;;;;5.50;2.70;;;2.90;58.70;;;;;;5043288;28;20521;-57
2023/04/30 04:15:16;;;;;;;6.70;3.57;;;3.00;57.60;;;;;;5043977;28;20483;-57
2023/04/30 04:17:44;;;;;;;4.67;2.23;;;3.00;58.40;;;;;;5047656;28;20513;-57
2023/04/30 04:20:12;;;;;;;11.60;2.73;;;3.10;56.50;;;;;;5043166;28;20569;-57
2023/04/30 04:22:38;;;;;;;8.50;2.60;;;3.20;54.10;;;;;;5050977;28;20515;-56
2023/04/30 04:25:06;;;;;;;5.47;2.20;;;3.20;57.10;;;;;;5052830;28;20489;-58
2023/04/30 04:27:33;;;;;;;4.83;2.23;;;3.30;55.30;;;;;;5047843;28;21084;-51
2023/04/30 04:29:59;;;;;;;4.27;2.80;;;3.40;59.80;;;;;;5044298;28;20510;-50
2023/04/30 04:32:26;;;;;;;5.10;3.27;;;3.40;59.70;;;;;;5045686;28;21000;-51
2023/04/30 04:34:55;;;;;;;11.20;3.03;;;3.50;59.80;;;;;;5041449;28;21058;-49
2023/04/30 04:37:22;;;;;;;6.40;4.20;;;3.50;59.40;;;;;;5044871;28;20990;-49
2023/04/30 04:39:49;;;;;;;4.20;3.03;;;3.50;57.50;;;;;;5050505;28;20462;-49
2023/04/30 04:42:16;;;;;;;5.70;3.13;;;3.60;56.90;;;;;;5048393;28;20469;-50
2023/04/30 04:44:43;;;;;;;9.10;3.23;;;3.70;56.70;;;;;;5049415;28;20470;-50
2023/04/30 04:47:11;;;;;;;9.70;3.70;;;3.80;57.50;;;;;;5045443;28;20518;-52
2023/04/30 04:49:38;;;;;;;7.63;3.20;;;3.90;59.50;;;;;;5039967;28;20476;-50
2023/04/30 04:52:06;;;;;;;13.37;3.70;;;4.00;61.90;;;;;;5041933;28;20550;-50
2023/04/30 04:54:33;;;;;;;7.17;3.53;;;4.10;61.70;;;;;;5053835;28;20497;-49
2023/04/30 04:57:00;;;;;;;6.23;3.80;;;4.10;69.00;;;;;;5053355;28;20509;-50
2023/04/30 04:59:26;;;;;;;5.13;3.10;;;4.20;78.70;;;;;;5043161;28;20457;-50
2023/04/30 05:01:53;;;;;;;8.00;3.77;;;4.30;83.70;;;;;;5042041;28;20512;-49
2023/04/30 05:04:19;;;;;;;8.70;3.90;;;4.50;89.10;;;;;;5042018;28;20492;-50
2023/04/30 05:06:46;;;;;;;8.03;4.27;;;4.50;99.90;;;;;;5053248;28;20535;-50
2023/04/30 05:09:14;;;;;;;18.13;4.43;;;4.60;99.70;;;;;;5044901;28;21049;-50
2023/04/30 05:11:42;;;;;;;13.57;3.30;;;4.70;99.90;;;;;;5060594;28;20472;-49
2023/04/30 05:14:09;;;;;;;12.30;4.17;;;4.70;99.90;;;;;;5048482;28;20464;-50
2023/04/30 05:16:35;;;;;;;8.53;3.37;;;4.80;99.90;;;;;;5044760;28;20482;-50
2023/04/30 05:19:02;;;;;;;17.43;3.87;;;5.00;99.90;;;;;;5032423;28;20552;-49
2023/04/30 05:21:30;;;;;;;14.73;5.33;;;5.00;99.90;;;;;;5041609;28;20453;-49
2023/04/30 05:23:57;;;;;;;10.20;3.37;;;5.10;99.90;;;;;;5044849;28;20453;-49
2023/04/30 05:26:25;;;;;;;10.50;3.90;;;5.10;99.90;;;;;;5046757;28;20489;-50
2023/04/30 05:28:52;;;;;;;14.00;3.53;;;5.20;99.90;;;;;;5047069;28;20499;-50
2023/04/30 05:31:18;;;;;;;12.33;3.73;;;5.30;99.90;;;;;;5046060;28;20489;-49
2023/04/30 05:33:45;;;;;;;8.03;3.40;;;5.40;99.90;;;;;;5046548;28;21020;-50
2023/04/30 05:36:11;;;;;;;9.13;3.60;;;5.40;1.40;;;;;;5043334;28;20542;-50
2023/04/30 05:38:38;;;;;;;8.83;3.93;;;5.50;99.90;;;;;;5044965;28;20498;-51
2023/04/30 05:41:05;;;;;;;5.47;3.17;;;5.60;99.90;;;;;;5050557;28;20496;-50
2023/04/30 05:43:33;;;;;;;9.30;3.57;;;5.70;99.90;;;;;;5040108;28;20513;-49
2023/04/30 05:45:59;;;;;;;9.33;3.30;;;5.70;99.90;;;;;;5055943;28;20511;-50
2023/04/30 05:48:26;;;;;;;9.60;3.50;;;5.80;99.90;;;;;;5052730;28;20500;-50
2023/04/30 05:50:52;;;;;;;13.30;3.30;;;5.90;99.90;;;;;;5041837;28;20535;-49
2023/04/30 05:53:19;;;;;;;10.43;3.77;;;5.90;99.90;;;;;;5045334;28;20503;-50
2023/04/30 05:55:46;;;;;;;7.23;3.30;;;6.10;99.90;;;;;;5046676;28;20961;-50
2023/04/30 05:58:12;;;;;;;7.67;3.93;;;6.00;99.90;;;;;;5050475;28;20498;-49
2023/04/30 06:00:40;;;;;;;8.03;2.83;;;6.10;99.90;;;;;;5039652;28;20496;-49
2023/04/30 06:03:07;;;;;;;8.27;2.83;;;6.20;99.90;;;;;;5043688;28;20515;-49
2023/04/30 06:05:34;;;;;;;9.50;3.70;;;6.20;99.90;;;;;;5046305;28;20465;-50
2023/04/30 06:08:00;;;;;;;10.30;3.37;;;6.30;99.90;;;;;;5060980;28;20495;-50
2023/04/30 06:10:27;;;;;;;10.83;3.83;;;6.50;99.90;;;;;;5053300;28;20524;-49
2023/04/30 06:12:53;;;;;;;14.37;4.17;;;6.60;24.50;;;;;;5046998;28;20500;-50
2023/04/30 06:15:20;;;;;;;18.47;3.80;;;6.60;28.80;;;;;;5042218;28;20500;-50
2023/04/30 06:17:48;;;;;;;11.47;3.70;;;6.40;57.30;;;;;;5054537;28;20933;-49
2023/04/30 06:20:14;;;;;;;11.73;4.20;;;6.60;38.70;;;;;;5063407;28;20972;-50
2023/04/30 06:22:41;;;;;;;13.90;4.10;;;6.80;50.90;;;;;;5050104;28;20534;-50
2023/04/30 06:25:09;;;;;;;9.13;3.83;;;6.90;53.90;;;;;;5046923;28;20975;-50
2023/04/30 06:27:35;;;;;;;9.07;3.83;;;7.00;68.60;;;;;;5037129;28;20921;-50
2023/04/30 06:30:02;;;;;;;9.10;4.00;;;7.10;99.90;;;;;;5050483;28;21049;-50
2023/04/30 06:32:28;;;;;;;18.30;3.93;;;7.30;99.90;;;;;;5039182;28;20507;-50
2023/04/30 06:34:56;;;;;;;11.00;3.00;;;7.40;99.90;;;;;;5047087;28;20499;-50
2023/04/30 06:37:23;;;;;;;12.70;3.60;;;7.60;99.90;;;;;;5039659;28;20512;-50
2023/04/30 06:39:50;;;;;;;9.47;2.83;;;7.60;99.90;;;;;;5048518;28;20522;-50
2023/04/30 06:42:17;;;;;;;9.67;3.60;;;7.60;99.90;;;;;;5055070;28;20488;-50
2023/04/30 06:44:44;;;;;;;8.37;3.40;;;7.80;99.90;;;;;;5050396;28;20510;-50
2023/04/30 06:47:11;;;;;;;8.83;3.93;;;8.00;99.90;;;;;;5049691;28;20487;-51
2023/04/30 06:49:37;;;;;;;9.03;3.63;;;8.40;84.70;;;;;;5041172;28;20558;-49
2023/04/30 06:52:05;;;;;;;6.17;2.93;;;8.60;22.50;;;;;;5035272;28;20469;-50
2023/04/30 06:54:32;;;;;;;9.63;3.67;;;8.70;43.50;;;;;;5037664;28;20489;-49
2023/04/30 06:56:58;;;;;;;10.33;3.67;;;8.70;32.60;;;;;;5039043;28;20527;-49
2023/04/30 06:59:25;;;;;;;8.30;3.80;;;8.80;23.50;;;;;;5043264;28;20503;-50
2023/04/30 07:01:52;;;;;;;8.37;3.53;;;9.00;47.80;;;;;;5046182;28;20509;-50
2023/04/30 07:04:19;;;;;;;9.17;4.00;;;9.40;64.20;;;;;;5048159;28;20507;-51
2023/04/30 07:06:45;;;;;;;13.23;3.57;;;9.50;79.00;;;;;;5046827;28;20990;-50
2023/04/30 07:09:14;;;;;;;9.90;3.20;;;9.50;79.70;;;;;;5045785;28;20529;-50
2023/04/30 07:11:41;;;;;;;8.60;3.07;;;9.20;92.50;;;;;;5042754;28;20477;-50
2023/04/30 07:14:08;;;;;;;7.67;2.93;;;9.10;81.60;;;;;;5047642;28;21509;-49
2023/04/30 07:16:34;;;;;;;14.07;3.70;;;9.80;89.40;;;;;;5061048;28;20492;-50
2023/04/30 07:19:01;;;;;;;8.40;3.63;;;9.70;99.90;;;;;;5039275;28;20498;-50
2023/04/30 07:21:27;;;;;;;8.33;3.37;;;10.00;98.00;;;;;;5039078;28;20510;-49
2023/04/30 07:23:54;;;;;;;7.33;3.27;;;9.90;85.50;;;;;;5039372;28;20445;-50
2023/04/30 07:26:23;;;;;;;10.53;3.43;;;9.70;95.90;;;;;;5044534;28;20507;-50
2023/04/30 07:28:50;;;;;;;8.40;3.60;;;9.30;83.10;;;;;;5056218;28;20465;-50
2023/04/30 07:31:18;;;;;;;7.13;3.30;;;9.40;99.90;;;;;;5039952;28;20937;-49
2023/04/30 07:33:44;;;;;;;6.70;2.73;;;9.40;99.90;;;;;;5050462;28;20497;-49
2023/04/30 07:36:11;;;;;;;12.33;3.10;;;9.50;99.90;;;;;;5038697;28;20480;-49
2023/04/30 07:38:37;;;;;;;15.97;3.50;;;9.10;99.90;;;;;;5039973;28;20503;-50
2023/04/30 07:41:05;;;;;;;6.53;2.57;;;9.20;99.90;;;;;;5044463;28;20869;-50
2023/04/30 07:43:33;;;;;;;4.77;3.07;;;9.40;99.90;;;;;;5040550;28;20853;-50
2023/04/30 07:45:59;;;;;;;9.27;2.97;;;9.20;99.90;;;;;;5052891;28;21004;-49
2023/04/30 07:48:26;;;;;;;4.97;3.33;;;9.20;99.90;;;;;;5051907;28;20471;-49
2023/04/30 07:50:52;;;;;;;6.97;3.27;;;9.30;99.90;;;;;;5046660;28;20577;-49
2023/04/30 07:53:19;;;;;;;10.13;3.30;;;9.50;99.90;;;;;;5044634;28;20500;-50
2023/04/30 07:55:46;;;;;;;13.63;3.63;;;9.60;99.90;;;;;;5043300;28;20476;-50
2023/04/30 07:58:12;;;;;;;5.60;3.50;;;9.80;99.90;;;;;;5047021;28;20465;-49
2023/04/30 08:00:40;;;;;;;7.20;2.77;;;9.90;99.90;;;;;;5051528;28;20497;-50
2023/04/30 08:03:07;;;;;;;6.03;2.80;;;10.00;99.90;;;;;;5065138;28;20464;-50
2023/04/30 08:05:34;;;;;;;19.10;3.50;;;10.40;99.90;;;;;;5045277;28;20501;-49
2023/04/30 08:08:01;;;;;;;8.63;2.70;;;10.10;99.90;;;;;;5045781;28;20547;-49
2023/04/30 08:10:28;;;;;;;4.40;2.30;;;10.10;99.90;;;;;;5048771;28;20516;-49
2023/04/30 08:12:54;;;;;;;4.67;2.60;;;10.00;99.90;;;;;;5061748;28;20555;-49
2023/04/30 08:15:21;;;;;;;6.73;2.80;;;10.40;99.90;;;;;;5049616;28;20488;-50
2023/04/30 08:17:50;;;;;;;5.70;2.20;;;10.70;99.90;;;;;;5047790;28;20604;-50
2023/04/30 08:20:18;;;;;;;4.93;2.67;;;11.10;99.90;;;;;;5044056;28;20814;-50
2023/04/30 08:22:45;;;;;;;5.43;2.53;;;10.60;99.90;;;;;;5050665;28;20488;-50
2023/04/30 08:25:12;;;;;;;3.70;2.27;;;10.70;99.90;;;;;;5034076;28;20484;-50
2023/04/30 08:27:39;;;;;;;14.77;3.53;;;10.60;99.90;;;;;;5063388;28;20486;-51
2023/04/30 08:30:07;;;;;;;9.20;3.00;;;11.20;99.90;;;;;;5062391;28;20458;-51
2023/04/30 08:32:35;;;;;;;8.10;3.17;;;11.60;99.90;;;;;;5039893;28;20517;-50
2023/04/30 08:35:03;;;;;;;7.80;2.90;;;11.50;99.90;;;;;;5039672;28;20833;-50
2023/04/30 08:37:30;;;;;;;6.10;3.10;;;11.80;99.90;;;;;;5042723;28;20480;-51
2023/04/30 08:39:56;;;;;;;14.97;3.33;;;12.10;99.90;;;;;;5049096;28;20492;-50
2023/04/30 08:42:26;;;;;;;5.93;2.87;;;12.00;99.90;;;;;;5048207;28;20485;-50
2023/04/30 08:44:52;;;;;;;13.50;3.27;;;12.50;99.90;;;;;;5043007;28;20502;-51
2023/04/30 08:47:20;;;;;;;7.00;3.00;;;13.30;99.90;;;;;;5040510;28;20510;-51
2023/04/30 08:49:47;;;;;;;5.93;2.93;;;13.30;99.90;;;;;;5040804;28;20496;-49
2023/04/30 08:52:15;;;;;;;5.83;2.70;;;13.60;99.90;;;;;;5042132;28;20513;-51
2023/04/30 08:54:44;;;;;;;2.90;2.13;;;13.90;99.90;;;;;;5047613;28;20515;-48
2023/04/30 08:57:10;;;;;;;6.33;2.57;;;14.50;99.90;;;;;;5036164;28;21001;-49
2023/04/30 08:59:37;;;;;;;6.63;2.77;;;14.50;99.90;;;;;;5051134;28;20481;-50
2023/04/30 09:02:05;;;;;;;3.47;2.87;;;15.20;99.90;;;;;;5045501;28;20492;-50
2023/04/30 09:04:31;;;;;;;4.43;2.77;;;15.20;99.90;;;;;;5049108;28;20456;-49
2023/04/30 09:06:58;;;;;;;8.80;2.60;;;14.50;99.90;;;;;;5046958;28;20511;-50
2023/04/30 09:09:31;;;;;;;8.47;3.30;;;14.60;99.90;;;;;;5049250;28;20917;-50
2023/04/30 09:12:12;;;;;;;9.00;3.20;;;14.60;99.90;;;;;;5037878;28;20511;-51
2023/04/30 09:14:40;;;;;;;3.00;2.50;;;14.90;99.90;;;;;;5035632;28;20472;-50
2023/04/30 09:17:07;;;;;;;5.00;2.67;;;14.50;99.90;;;;;;5036490;28;20563;-51
2023/04/30 09:19:35;;;;;;;5.07;2.67;;;14.50;99.90;;;;;;5042271;28;20493;-51
2023/04/30 09:22:19;;;;;;;11.67;2.23;;;14.30;99.90;;;;;;5037472;28;20465;-51
2023/04/30 09:24:49;;;;;;;3.20;2.00;;;15.50;99.90;;;;;;5040257;28;20615;-51
2023/04/30 09:27:17;;;;;;;6.30;2.40;;;14.40;99.90;;;;;;5038298;28;20487;-50
2023/04/30 09:29:45;;;;;;;6.80;2.67;;;14.70;99.90;;;;;;5048840;28;20493;-50
2023/04/30 09:32:11;;;;;;;7.57;2.53;;;14.50;99.90;;;;;;5051282;28;20877;-50
2023/04/30 09:34:38;;;;;;;5.53;2.20;;;15.40;99.90;;;;;;5049439;28;20504;-50
2023/04/30 09:37:05;;;;;;;2.67;1.77;;;15.90;99.90;;;;;;5044089;28;20513;-50
2023/04/30 09:39:31;;;;;;;4.30;2.13;;;15.60;99.90;;;;;;5042694;28;20455;-50
2023/04/30 09:42:09;;;;;;;4.93;2.43;;;16.00;99.90;;;;;;5036347;28;20494;-50
2023/04/30 09:44:37;;;;;;;7.60;2.60;;;15.70;99.90;;;;;;5044643;28;20445;-50
2023/04/30 09:47:04;;;;;;;10.53;3.33;;;15.30;99.90;;;;;;5047485;28;20597;-50
2023/04/30 09:49:31;;;;;;;8.40;2.97;;;16.00;99.90;;;;;;5044517;28;20465;-49
2023/04/30 09:51:59;;;;;;;7.70;3.20;;;15.00;99.90;;;;;;5032863;28;20582;-50
2023/04/30 09:54:28;;;;;;;2.83;2.00;;;15.80;99.90;;;;;;5037315;28;20545;-50
2023/04/30 09:56:56;;;;;;;3.33;2.47;;;15.70;99.90;;;;;;5036684;28;20500;-50
2023/04/30 09:59:30;;;;;;;6.03;2.70;;;15.90;99.90;;;;;;5041649;28;20507;-50
2023/04/30 10:01:59;;;;;;;6.43;2.93;;;16.20;99.90;;;;;;5060617;28;20455;-52
2023/04/30 10:04:27;;;;;;;5.50;2.70;;;15.90;99.90;;;;;;5055579;28;20466;-49
2023/04/30 10:06:57;;;;;;;8.97;2.97;;;15.10;99.90;;;;;;5057562;28;20486;-49
2023/04/30 10:09:26;;;;;;;5.27;2.23;;;14.50;99.90;;;;;;5061271;28;20469;-50
2023/04/30 10:11:53;;;;;;;4.30;2.20;;;15.00;99.90;;;;;;5059117;28;20482;-50
2023/04/30 10:14:20;;;;;;;6.67;2.50;;;15.60;99.90;;;;;;5061703;28;20462;-51
2023/04/30 10:16:54;;;;;;;3.60;2.47;;;15.00;99.90;;;;;;5045851;28;20521;-50
2023/04/30 10:19:24;;;;;;;5.93;2.83;;;15.50;99.90;;;;;;5045677;28;20489;-50
2023/04/30 10:21:51;;;;;;;7.23;2.70;;;15.40;99.90;;;;;;5048983;28;20517;-50
2023/04/30 10:24:19;;;;;;;5.03;2.30;;;15.00;99.90;;;;;;5051459;28;20518;-50
2023/04/30 10:26:47;;;;;;;3.90;2.30;;;15.00;99.90;;;;;;5049179;28;20474;-51
2023/04/30 10:29:15;;;;;;;4.17;2.80;;;15.40;99.90;;;;;;5043567;28;20501;-49
2023/04/30 10:31:45;;;;;;;7.57;2.60;;;15.90;99.90;;;;;;5041577;28;20478;-49
2023/04/30 10:34:18;;;;;;;9.10;3.13;;;16.10;99.90;;;;;;5049020;28;20465;-55
2023/04/30 10:36:48;;;;;;;2.97;2.13;;;16.50;99.90;;;;;;5042798;28;20509;-50
2023/04/30 10:39:15;;;;;;;5.90;2.20;;;15.20;99.90;;;;;;5042105;28;21162;-51
2023/04/30 10:41:45;;;;;;;4.83;2.33;;;15.90;99.90;;;;;;5036886;28;20485;-51
2023/04/30 10:44:11;;;;;;;9.83;3.50;;;16.20;99.90;;;;;;5033532;28;21000;-51
2023/04/30 10:46:38;;;;;;;4.27;2.37;;;15.80;99.90;;;;;;5035750;28;20474;-51
2023/04/30 10:49:05;;;;;;;2.60;2.10;;;16.10;99.90;;;;;;5043126;28;20486;-54
2023/04/30 10:51:53;;;;;;;4.33;2.57;;;16.50;99.90;;;;;;5035484;28;20573;-51
2023/04/30 10:54:25;;;;;;;6.73;2.60;;;16.50;99.90;;;;;;5038809;28;20466;-50
2023/04/30 10:56:52;;;;;;;4.03;2.40;;;15.70;99.90;;;;;;5037207;28;20501;-51
2023/04/30 10:59:19;;;;;;;4.93;2.60;;;14.80;99.90;;;;;;5035980;28;20465;-50
2023/04/30 11:01:56;;;;;;;6.07;2.60;;;14.90;99.90;;;;;;5044681;28;20451;-50
2023/04/30 11:04:23;;;;;;;6.93;1.90;;;15.20;99.90;;;;;;5048094;28;20980;-50
2023/04/30 11:07:00;;;;;;;6.63;2.70;;;16.10;99.90;;;;;;5049844;28;21007;-50
2023/04/30 11:09:36;;;;;;;3.90;2.00;;;15.60;99.90;;;;;;5045397;28;20469;-50
2023/04/30 11:12:04;;;;;;;5.97;2.30;;;16.10;99.90;;;;;;5045900;28;20482;-49
2023/04/30 11:14:32;;;;;;;3.47;2.37;;;16.00;99.90;;;;;;5043614;28;20489;-51
2023/04/30 11:16:59;;;;;;;11.63;3.10;;;16.20;99.90;;;;;;5048569;28;20463;-50
2023/04/30 11:19:28;;;;;;;7.83;3.50;;;16.40;99.90;;;;;;5032623;28;20834;-50
2023/04/30 11:22:23;;;;;;;4.60;2.37;;;16.70;99.90;;;;;;5039994;28;21188;-52
2023/04/30 11:24:51;;;;;;;5.53;2.70;;;15.30;99.90;;;;;;5041803;28;20641;-52
2023/04/30 11:27:20;;;;;;;3.97;2.47;;;15.70;99.90;;;;;;5038589;28;21002;-52
2023/04/30 11:29:47;;;;;;;2.77;2.43;;;15.40;99.90;;;;;;5042042;28;20458;-53
2023/04/30 11:32:14;;;;;;;4.73;2.10;;;15.30;99.90;;;;;;5046697;28;20579;-52
2023/04/30 11:34:43;;;;;;;9.00;3.27;;;15.90;99.90;;;;;;5040766;28;20498;-53
2023/04/30 11:37:13;;;;;;;4.30;2.47;;;15.40;99.90;;;;;;5042874;28;20963;-52
2023/04/30 11:39:42;;;;;;;5.80;2.33;;;15.70;99.90;;;;;;5046084;28;20460;-52
2023/04/30 11:42:09;;;;;;;10.57;2.20;;;16.30;99.90;;;;;;5051114;28;21010;-53
2023/04/30 11:44:37;;;;;;;4.73;2.47;;;15.60;99.90;;;;;;5047472;28;20457;-52
2023/04/30 11:47:04;;;;;;;5.60;2.77;;;15.60;99.90;;;;;;5046114;28;20478;-52
2023/04/30 11:49:31;;;;;;;4.03;2.13;;;15.20;99.90;;;;;;5038898;28;20481;-52
2023/04/30 11:51:58;;;;;;;6.03;2.30;;;15.50;99.90;;;;;;5050402;28;20511;-49
2023/04/30 11:54:25;;;;;;;9.80;2.90;;;15.60;99.90;;;;;;5060506;28;20520;-50
2023/04/30 11:56:52;;;;;;;6.77;2.20;;;16.10;99.90;;;;;;5042241;28;21464;-50
2023/04/30 11:59:19;;;;;;;7.23;2.43;;;16.20;99.90;;;;;;5052578;28;21186;-51
2023/04/30 12:01:46;;;;;;;2.70;2.07;;;15.50;99.90;;;;;;5036805;28;20466;-50
2023/04/30 12:04:13;;;;;;;10.73;2.40;;;16.20;99.90;;;;;;5048431;28;20498;-50
2023/04/30 12:06:41;;;;;;;3.53;2.00;;;15.90;99.90;;;;;;5043626;28;20478;-50
2023/04/30 12:09:08;;;;;;;7.03;2.77;;;15.90;99.90;;;;;;5052794;28;20482;-58
2023/04/30 12:11:36;;;;;;;10.70;2.77;;;16.20;99.90;;;;;;5059328;28;20445;-58
2023/04/30 12:14:06;;;;;;;6.10;2.10;;;16.50;99.90;;;;;;5051480;28;20484;-57
2023/04/30 12:16:40;;;;;;;6.90;2.50;;;16.50;99.90;;;;;;5049740;28;20482;-59
2023/04/30 12:19:08;;;;;;;7.30;3.03;;;16.40;99.90;;;;;;5044624;28;20456;-59
2023/04/30 12:21:35;;;;;;;9.10;2.23;;;16.20;99.90;;;;;;5060683;28;20469;-59
2023/04/30 12:24:01;;;;;;;6.40;2.20;;;16.20;99.90;;;;;;5057936;28;20949;-59
2023/04/30 12:26:35;;;;;;;4.87;1.97;;;16.60;99.90;;;;;;5045489;28;20514;-59
2023/04/30 12:29:05;;;;;;;3.80;2.43;;;17.20;99.90;;;;;;5041610;28;20458;-59
2023/04/30 12:31:32;;;;;;;2.67;2.23;;;17.50;99.90;;;;;;5048427;28;20541;-59
2023/04/30 12:34:03;;;;;;;2.30;2.00;;;17.70;99.90;;;;;;5040418;28;20462;-59
2023/04/30 12:36:32;;;;;;;5.97;3.00;;;17.30;99.90;;;;;;5055184;28;21256;-58
2023/04/30 12:39:08;;;;;;;7.07;2.60;;;16.80;99.90;;;;;;5041659;28;20459;-59
2023/04/30 12:41:41;;;;;;;4.27;2.07;;;17.20;99.90;;;;;;5044885;28;20470;-59
2023/04/30 12:44:16;;;;;;;7.50;2.37;;;17.30;99.90;;;;;;5055244;28;20962;-58
2023/04/30 12:46:45;;;;;;;7.10;2.60;;;17.10;99.90;;;;;;5059296;28;20514;-59
2023/04/30 12:49:12;;;;;;;6.67;2.10;;;16.90;99.90;;;;;;5046837;28;21140;-58
2023/04/30 12:51:43;;;;;;;3.40;2.10;;;17.00;99.90;;;;;;5033512;28;20458;-58
2023/04/30 12:54:10;;;;;;;5.23;2.27;;;17.80;99.90;;;;;;5055148;28;20479;-58